KCLE/CLE METAR and TAF weather

Enter ICAO airport designator
Station Type Date Time Source
KCLE METAR 2019/08/19 07:51 UTC NOAA

KCLE 190751Z 21006KT 10SM FEW140 OVC250 20/18 A2997 RMK AO2 SLP141 T02000183


Station Type Date Time Source
KCLE Decoded METAR 2019/08/19 07:51 UTC NOAA

Station name not available
Aug 19, 2019 - 03:51 AM EDT / 2019.08.19 0751 UTC
Wind: from the SSW (210 degrees) at 7 MPH (6 KT):0
Visibility: 10 mile(s):0
Sky conditions: overcast
Temperature: 68.0 F (20.0 C)
Dew Point: 64.9 F (18.3 C)
Relative Humidity: 89%
Pressure (altimeter): 29.97 in. Hg (1014 hPa)
ob: KCLE 190751Z 21006KT 10SM FEW140 OVC250 20/18 A2997 RMK AO2 SLP141 T02000183
cycle: 8

Station Type Date Time Source
KCLE TAF 2019/08/19 06:24 UTC NOAA

TAF KCLE 190521Z 1906/2012 18006KT 6SM -SHRA BKN050 OVC100
FM190800 23008KT P6SM SCT050
TEMPO 1909/1912 5SM BR
FM191500 32005KT P6SM BKN250

Example: see airport list